Kezdőlap
METAR-TAF:

METAR-TAF

Repülőterek :

Wilson repülőtér

Nairobi, Kenya

földrajzi szélesség: 01-19S, földrajzi hosszúság: 036-49E, magasság: 1683 m

Jelenlegi meteorológiai megfigyelések

A jelentés 6 órával és 30 perccel ezelõtt készült, 17:00 UTC
Szélcsend
Hőmérséklet 18°C
Páratartalom 88%
Légköri nyomás 1019 hPa
Látótávolság 10 km, vagy több
Szakadozott felhőzet 2000 lábon
Szakadozott felhőzet 9000 lábon

METAR: HKNW 201700Z 00000KT 9999 BKN020 BKN090 18/16 Q1019

Idő: 02:30 (23:30 UTC)


TAF: hiányzik

Meteorológiai megfigyelések és előrejelzések több, mint 4000 repülőtéren (METAR és TAF jelentéseket).

A térképen piros és sárga pontok jelzik az elérhető meteorológiai állomásokat.

Mozgassa az egeret a pont fölött, hogy megjelenjen az állomás neve.

Azután kattintson az időjárási megfigyelések és előrejelzések megtekintéséhez.

A térkép megváltoztatása: kattintson a fekete keresztel jelölt zöld gombra ráközelítéshez, a vonallal jelölt zöld gombra távolításhoz, vagy a zöld nyilakra a szomszédos térképek eléréséhez.


METAR-TAF: